Archival Weather

NSFA McMurdo Sound

NSFA McMurdo Sound, Antarctica (NZCM)

Report from: Friday, September 23, 2022 1:55 PM UTC
Current time: Sunday, December 4, 2022 12:08 PM UTC

Current weather
Weather history
Weather forecast

Present weatherLight snow, mist
Temperature-18.7°C (-1.7°F)
Wind chill-30.1°C (-22.2°F)
Dew point-23.4°C (-10.1°F)
Winds 14 kts (7.2 m/s, 16.1 mph) East-Southeast (120°)
Wind gusts 23 kts (11.8 m/s, 26.5 mph)
Visibility1.7 mi. (2.7 km)
Clouds Ceiling: Overcast 1,500 ft. (457 m)
Altimeter28.62 in.Hg (969 mB)
Precip. events Snow ended 1:00 PM
Snow began 1:15 PM
Relative humidity66 %
Density altitude-2,726 ft. (-831 m)
Sea-level pressure107.0 kPa (1070 mB, 31.59 in.Hg)
Remarks Fully automated report
System requires maintenance
Automated weather observing station with precipitation discriminator
Flight conditions Instrument Meteorological Conditions
Raw dataNZCM 231355Z AUTO 12014G23KT 2700 -SN BR OVC015 M19/M23 A2862 RMK AO2 SNE1300B1315 SLP697 T11871234 $
An error has occurred. This application may no longer respond until reloaded. Reload 🗙